Time;durP1;ratioP1;P1;durP2;ratioP2;P2;SDS_P1;SDS_P2;PMS_P1;PMS_P2;Temp;Humidity;BMP_temperature;BMP_pressure;BME280_temperature;BME280_humidity;BME280_pressure;Samples;Min_cycle;Max_cycle;Signal;HPM_P1;HPM_P2
2021/11/03 00:00:20;;;;;;;;;;;3.10;99.90;;;;;;4999801;28;19913;-68
2021/11/03 00:02:45;;;;;;;;;;;3.10;99.90;;;;;;5003565;28;19913;-67
2021/11/03 00:05:12;;;;;;;;;;;2.90;97.40;;;;;;5017124;28;19913;-68
2021/11/03 00:07:38;;;;;;;;;;;2.80;96.70;;;;;;5001430;28;20483;-68
2021/11/03 00:10:05;;;;;;;;;;;2.70;96.90;;;;;;4997791;28;19917;-66
2021/11/03 00:12:30;;;;;;;;;;;2.70;97.80;;;;;;4998801;28;19913;-68
2021/11/03 00:14:56;;;;;;;;;;;2.60;97.70;;;;;;5009786;28;20380;-68
2021/11/03 00:17:21;;;;;;;;;;;2.60;98.40;;;;;;5038110;28;20402;-68
2021/11/03 00:19:47;;;;;;;;;;;2.60;98.10;;;;;;5006477;28;20764;-68
2021/11/03 00:22:14;;;;;;;;;;;2.70;98.40;;;;;;5014315;28;19967;-68
2021/11/03 00:24:40;;;;;;;;;;;2.60;98.50;;;;;;5000417;28;19918;-68
2021/11/03 00:27:06;;;;;;;;;;;2.60;99.30;;;;;;5002156;28;19928;-67
2021/11/03 00:29:32;;;;;;;;;;;2.60;99.40;;;;;;4995489;28;20349;-67
2021/11/03 00:31:57;;;;;;;;;;;2.60;99.50;;;;;;5008577;28;19922;-67
2021/11/03 00:34:23;;;;;;;;;;;2.60;99.40;;;;;;5004876;28;19987;-67
2021/11/03 00:36:48;;;;;;;;;;;2.70;99.90;;;;;;5003043;28;20000;-67
2021/11/03 00:39:14;;;;;;;;;;;2.70;99.90;;;;;;5011296;28;19948;-67
2021/11/03 00:41:39;;;;;;;;;;;2.50;99.90;;;;;;4999768;28;19923;-67
2021/11/03 00:44:05;;;;;;;;;;;2.30;99.90;;;;;;5009885;28;19931;-67
2021/11/03 00:46:31;;;;;;;;;;;2.20;99.90;;;;;;5007875;28;20012;-67
2021/11/03 00:48:56;;;;;;;;;;;2.20;99.90;;;;;;5000900;28;19961;-68
2021/11/03 00:51:22;;;;;;;;;;;2.10;99.90;;;;;;5009595;28;19909;-67
2021/11/03 00:53:47;;;;;;;;;;;2.10;99.90;;;;;;5013375;28;19976;-67
2021/11/03 00:56:13;;;;;;;;;;;2.10;99.90;;;;;;5007028;28;19913;-67
2021/11/03 00:58:39;;;;;;;;;;;2.20;99.90;;;;;;4995465;28;20012;-67
2021/11/03 01:01:04;;;;;;;;;;;2.20;99.90;;;;;;5007344;28;20436;-67
2021/11/03 01:03:30;;;;;;;;;;;2.20;99.90;;;;;;4996783;28;20501;-67
2021/11/03 01:05:56;;;;;;;;;;;2.20;99.90;;;;;;5008970;28;19959;-67
2021/11/03 01:08:21;;;;;;;;;;;2.30;99.90;;;;;;5014085;28;19918;-67
2021/11/03 01:10:48;;;;;;;;;;;2.20;99.70;;;;;;4992732;28;19910;-67
2021/11/03 01:13:15;;;;;;;;;;;2.20;99.90;;;;;;5008686;28;20547;-67
2021/11/03 01:15:40;;;;;;;;;;;2.30;99.90;;;;;;5007857;28;19909;-68
2021/11/03 01:18:06;;;;;;;;;;;2.30;99.90;;;;;;5008538;28;19978;-67
2021/11/03 01:20:32;;;;;;;;;;;2.30;99.50;;;;;;5010822;28;19909;-67
2021/11/03 01:22:57;;;;;;;;;;;2.10;97.30;;;;;;5005973;28;19925;-67
2021/11/03 01:25:24;;;;;;;;;;;2.00;96.00;;;;;;5010378;28;19966;-67
2021/11/03 01:27:50;;;;;;;;;;;1.80;96.00;;;;;;5002337;28;19909;-67
2021/11/03 01:30:17;;;;;;;;;;;1.70;97.10;;;;;;5012319;28;19921;-67
2021/11/03 01:32:42;;;;;;;;;;;1.80;97.80;;;;;;5004006;28;19952;-67
2021/11/03 01:35:09;;;;;;;;;;;1.90;99.20;;;;;;5005244;28;20003;-67
2021/11/03 01:37:35;;;;;;;;;;;1.90;99.90;;;;;;5006721;28;19952;-67
2021/11/03 01:40:01;;;;;;;;;;;1.80;99.90;;;;;;5006464;28;19971;-67
2021/11/03 01:42:26;;;;;;;;;;;1.80;99.00;;;;;;4994251;28;20461;-66
2021/11/03 01:44:52;;;;;;;;;;;1.60;96.90;;;;;;5004322;28;19909;-68
2021/11/03 01:47:36;;;;;;;;;;;1.70;97.40;;;;;;5018921;28;20325;-67
2021/11/03 01:50:06;;;;;;;;;;;1.70;97.90;;;;;;5005598;28;19993;-67
2021/11/03 01:52:32;;;;;;;;;;;1.70;97.80;;;;;;5015816;28;19920;-67
2021/11/03 01:54:57;;;;;;;;;;;1.70;97.70;;;;;;5005728;28;19918;-67
2021/11/03 01:57:25;;;;;;;;;;;1.60;98.00;;;;;;5003725;28;19996;-68
2021/11/03 01:59:52;;;;;;;;;;;1.50;97.60;;;;;;5010755;28;20332;-68
2021/11/03 02:02:19;;;;;;;;;;;1.40;99.20;;;;;;5006462;28;20095;-67
2021/11/03 02:04:45;;;;;;;;;;;1.50;99.90;;;;;;5007597;28;20281;-67
2021/11/03 02:07:15;;;;;;;;;;;1.60;99.90;;;;;;5011624;28;19913;-68
2021/11/03 02:09:42;;;;;;;;;;;1.60;99.90;;;;;;5009687;28;19916;-67
2021/11/03 02:12:11;;;;;;;;;;;1.60;99.90;;;;;;4998390;28;19909;-67
2021/11/03 02:14:37;;;;;;;;;;;1.70;99.90;;;;;;5001127;28;19913;-67
2021/11/03 02:17:03;;;;;;;;;;;1.80;99.90;;;;;;5005599;28;19936;-67
2021/11/03 02:19:30;;;;;;;;;;;1.80;99.90;;;;;;5006699;28;19923;-67
2021/11/03 02:21:56;;;;;;;;;;;1.80;99.90;;;;;;4999083;28;19967;-67
2021/11/03 02:24:27;;;;;;;;;;;1.80;99.90;;;;;;4999426;28;21336;-67
2021/11/03 02:26:54;;;;;;;;;;;1.70;99.90;;;;;;5003632;28;19964;-66
2021/11/03 02:29:20;;;;;;;;;;;1.80;99.90;;;;;;5011985;28;19912;-67
2021/11/03 02:31:48;;;;;;;;;;;1.80;99.90;;;;;;5000146;28;19913;-66
2021/11/03 02:34:19;;;;;;;;;;;1.90;99.90;;;;;;5026715;28;19948;-67
2021/11/03 02:36:58;;;;;;;;;;;1.90;99.90;;;;;;5013788;28;19917;-66
2021/11/03 02:39:29;;;;;;;;;;;1.80;99.90;;;;;;5001454;28;19913;-67
2021/11/03 02:41:54;;;;;;;;;;;1.80;99.90;;;;;;4997811;28;19928;-67
2021/11/03 02:44:20;;;;;;;;;;;1.80;99.90;;;;;;5001979;28;20337;-67
2021/11/03 02:46:46;;;;;;;;;;;1.70;99.90;;;;;;5003262;28;20001;-69
2021/11/03 02:49:11;;;;;;;;;;;1.80;99.90;;;;;;5004044;28;20004;-68
2021/11/03 02:51:39;;;;;;;;;;;1.70;99.90;;;;;;5004131;28;20732;-68
2021/11/03 02:54:06;;;;;;;;;;;1.70;99.90;;;;;;5009477;28;20460;-67
2021/11/03 02:56:34;;;;;;;;;;;1.60;99.90;;;;;;5004066;28;20444;-67
2021/11/03 02:58:59;;;;;;;;;;;1.60;99.90;;;;;;5004706;28;19964;-67
2021/11/03 03:01:29;;;;;;;;;;;1.60;99.90;;;;;;5005441;28;20644;-67
2021/11/03 03:03:54;;;;;;;;;;;1.70;99.90;;;;;;5005905;28;19910;-68
2021/11/03 03:06:22;;;;;;;;;;;1.70;99.90;;;;;;5038499;28;19920;-67
2021/11/03 03:08:48;;;;;;;;;;;1.60;99.90;;;;;;5013044;28;19913;-67
2021/11/03 03:11:14;;;;;;;;;;;1.50;99.90;;;;;;5000869;28;19928;-67
2021/11/03 03:13:41;;;;;;;;;;;1.40;99.90;;;;;;5012514;28;20363;-67
2021/11/03 03:16:06;;;;;;;;;;;1.40;99.90;;;;;;5007963;28;19917;-66
2021/11/03 03:18:32;;;;;;;;;;;1.30;99.90;;;;;;5008585;28;19917;-67
2021/11/03 03:20:57;;;;;;;;;;;1.30;99.90;;;;;;5013173;28;20379;-67
2021/11/03 03:23:23;;;;;;;;;;;1.50;99.90;;;;;;4996352;28;19952;-67
2021/11/03 03:25:49;;;;;;;;;;;1.40;99.90;;;;;;4999601;28;20374;-66
2021/11/03 03:28:16;;;;;;;;;;;1.20;96.70;;;;;;5003171;28;20350;-67
2021/11/03 03:30:42;;;;;;;;;;;1.20;99.50;;;;;;5036360;28;19963;-67
2021/11/03 03:33:07;;;;;;;;;;;1.30;99.90;;;;;;5026374;28;19944;-67
2021/11/03 03:35:33;;;;;;;;;;;1.40;99.90;;;;;;5026273;28;19912;-67
2021/11/03 03:37:58;;;;;;;;;;;1.40;99.90;;;;;;5027404;28;20378;-66
2021/11/03 03:40:24;;;;;;;;;;;1.40;99.90;;;;;;5014728;28;20023;-67
2021/11/03 03:42:50;;;;;;;;;;;1.50;99.90;;;;;;5022451;28;20030;-66
2021/11/03 03:45:16;;;;;;;;;;;1.50;99.90;;;;;;5049393;28;19945;-66
2021/11/03 03:47:41;;;;;;;;;;;1.50;99.90;;;;;;5018543;28;19917;-67
2021/11/03 03:50:07;;;;;;;;;;;1.50;99.90;;;;;;5043156;28;19909;-67
2021/11/03 03:52:33;;;;;;;;;;;1.20;97.30;;;;;;5023771;28;19927;-66
2021/11/03 03:54:59;;;;;;;;;;;1.10;99.90;;;;;;5024251;28;20003;-67
2021/11/03 03:57:24;;;;;;;;;;;1.10;99.90;;;;;;5025237;28;19987;-67
2021/11/03 03:59:50;;;;;;;;;;;1.20;99.90;;;;;;5026499;28;19913;-67
2021/11/03 04:02:15;;;;;;;;;;;1.20;99.90;;;;;;5027684;28;19917;-67
2021/11/03 04:04:41;;;;;;;;;;;1.30;99.90;;;;;;5030096;28;19967;-67
2021/11/03 04:07:06;;;;;;;;;;;1.30;99.90;;;;;;5038140;28;19993;-67
2021/11/03 04:09:32;;;;;;;;;;;1.30;99.90;;;;;;5024552;28;19925;-67
2021/11/03 04:11:57;;;;;;;;;;;1.30;99.90;;;;;;5038550;28;19982;-67
2021/11/03 04:14:23;;;;;;;;;;;1.30;99.90;;;;;;5022328;28;19913;-67
2021/11/03 04:16:49;;;;;;;;;;;1.30;99.90;;;;;;5032949;28;19966;-67
2021/11/03 04:19:14;;;;;;;;;;;1.40;99.90;;;;;;5030944;28;19925;-67
2021/11/03 04:21:40;;;;;;;;;;;1.50;99.90;;;;;;5026057;28;19909;-67
2021/11/03 04:24:06;;;;;;;;;;;1.50;99.90;;;;;;5057446;28;19917;-67
2021/11/03 04:26:33;;;;;;;;;;;1.50;99.90;;;;;;5035579;28;19920;-67
2021/11/03 04:28:59;;;;;;;;;;;1.50;99.90;;;;;;5022469;28;20381;-67
2021/11/03 04:31:25;;;;;;;;;;;1.50;99.90;;;;;;5053873;28;19975;-68
2021/11/03 04:33:51;;;;;;;;;;;1.40;99.90;;;;;;5038405;28;19920;-67
2021/11/03 04:36:18;;;;;;;;;;;1.40;99.90;;;;;;5034602;28;19909;-67
2021/11/03 04:38:43;;;;;;;;;;;1.50;99.90;;;;;;5017238;28;20000;-67
2021/11/03 04:41:09;;;;;;;;;;;1.60;99.90;;;;;;5031479;28;19996;-67
2021/11/03 04:43:34;;;;;;;;;;;1.60;99.90;;;;;;5021999;28;20372;-67
2021/11/03 04:46:00;;;;;;;;;;;1.70;99.90;;;;;;5037991;28;20004;-67
2021/11/03 04:48:26;;;;;;;;;;;1.70;99.90;;;;;;5035614;28;19949;-67
2021/11/03 04:50:51;;;;;;;;;;;1.70;99.90;;;;;;5057201;28;19916;-67
2021/11/03 04:53:17;;;;;;;;;;;1.60;99.90;;;;;;5056452;28;19917;-67
2021/11/03 04:55:42;;;;;;;;;;;1.60;99.90;;;;;;5031821;28;19921;-67
2021/11/03 04:58:09;;;;;;;;;;;1.50;99.90;;;;;;5023917;28;19917;-66
2021/11/03 05:00:35;;;;;;;;;;;1.40;99.90;;;;;;5028561;28;20382;-66
2021/11/03 05:03:01;;;;;;;;;;;1.30;99.90;;;;;;5031622;28;19917;-67
2021/11/03 05:05:26;;;;;;;;;;;1.30;99.90;;;;;;5032845;28;19913;-67
2021/11/03 05:07:54;;;;;;;;;;;1.30;99.90;;;;;;5025267;28;20330;-67
2021/11/03 05:10:20;;;;;;;;;;;1.40;99.90;;;;;;5028244;28;19944;-66
2021/11/03 05:12:46;;;;;;;;;;;1.40;99.90;;;;;;5013476;28;20390;-66
2021/11/03 05:15:11;;;;;;;;;;;1.40;99.90;;;;;;5027207;28;19913;-66
2021/11/03 05:17:37;;;;;;;;;;;1.40;99.90;;;;;;5058199;28;19913;-66
2021/11/03 05:20:03;;;;;;;;;;;1.40;99.90;;;;;;5031976;28;19924;-66
2021/11/03 05:22:29;;;;;;;;;;;1.40;99.90;;;;;;5033443;28;19908;-68
2021/11/03 05:24:55;;;;;;;;;;;1.40;99.90;;;;;;5037012;28;19923;-68
2021/11/03 05:27:21;;;;;;;;;;;1.40;99.90;;;;;;5024344;28;19947;-67
2021/11/03 05:29:47;;;;;;;;;;;1.40;99.90;;;;;;5033884;28;19909;-68
2021/11/03 05:32:12;;;;;;;;;;;1.40;99.90;;;;;;5035367;28;19932;-68
2021/11/03 05:34:38;;;;;;;;;;;1.40;99.90;;;;;;5026547;28;20301;-68
2021/11/03 05:37:04;;;;;;;;;;;1.40;99.90;;;;;;5028342;28;19915;-68
2021/11/03 05:39:29;;;;;;;;;;;1.50;99.90;;;;;;5049132;28;19909;-68
2021/11/03 05:41:55;;;;;;;;;;;1.50;99.90;;;;;;5015985;28;19917;-68
2021/11/03 05:44:20;;;;;;;;;;;1.50;99.90;;;;;;5025352;28;20750;-67
2021/11/03 05:46:47;;;;;;;;;;;1.50;99.90;;;;;;5033615;28;19967;-67
2021/11/03 05:49:14;;;;;;;;;;;1.50;99.90;;;;;;5029634;28;19909;-67
2021/11/03 05:51:41;;;;;;;;;;;1.50;99.90;;;;;;5035888;28;20384;-67
2021/11/03 05:54:06;;;;;;;;;;;1.40;99.90;;;;;;5016689;28;20000;-67
2021/11/03 05:56:32;;;;;;;;;;;1.40;99.90;;;;;;5026490;28;19909;-67
2021/11/03 05:58:59;;;;;;;;;;;1.30;99.90;;;;;;5032101;28;19920;-67
2021/11/03 06:01:24;;;;;;;;;;;1.30;99.90;;;;;;5022179;28;19913;-68
2021/11/03 06:03:52;;;;;;;;;;;1.30;99.90;;;;;;5004588;28;19917;-67
2021/11/03 06:06:18;;;;;;;;;;;1.30;99.90;;;;;;5037666;28;19922;-65
2021/11/03 06:08:44;;;;;;;;;;;1.40;99.90;;;;;;5003949;28;19913;-67
2021/11/03 06:11:10;;;;;;;;;;;1.40;99.90;;;;;;5007514;28;19947;-66
2021/11/03 06:13:36;;;;;;;;;;;1.40;99.90;;;;;;5014396;28;19917;-67
2021/11/03 06:16:02;;;;;;;;;;;1.30;99.90;;;;;;5007139;28;20000;-67
2021/11/03 06:18:27;;;;;;;;;;;1.30;99.90;;;;;;5007412;28;19922;-67
2021/11/03 06:20:53;;;;;;;;;;;1.20;99.90;;;;;;5005513;28;20266;-66
2021/11/03 06:23:18;;;;;;;;;;;1.20;99.90;;;;;;5006880;28;19921;-67
2021/11/03 06:25:44;;;;;;;;;;;1.10;99.90;;;;;;5014291;28;19918;-67
2021/11/03 06:28:09;;;;;;;;;;;1.10;99.90;;;;;;5007624;28;19914;-67
2021/11/03 06:30:37;;;;;;;;;;;1.00;99.90;;;;;;5008490;28;19929;-68
2021/11/03 06:33:03;;;;;;;;;;;1.00;99.90;;;;;;5000813;28;20289;-68
2021/11/03 06:35:30;;;;;;;;;;;1.10;99.90;;;;;;5002540;28;19909;-68
2021/11/03 06:37:56;;;;;;;;;;;1.10;99.90;;;;;;5013399;28;20044;-68
2021/11/03 06:40:23;;;;;;;;;;;1.10;99.90;;;;;;5011033;28;19992;-68
2021/11/03 06:42:49;;;;;;;;;;;1.10;99.90;;;;;;5013816;28;19940;-68
2021/11/03 06:45:15;;;;;;;;;;;1.10;99.90;;;;;;5016152;28;19909;-68
2021/11/03 06:47:41;;;;;;;;;;;1.10;99.90;;;;;;5008673;28;20409;-68
2021/11/03 06:50:08;;;;;;;;;;;1.20;99.90;;;;;;5018078;28;19991;-68
2021/11/03 06:52:35;;;;;;;;;;;1.20;99.90;;;;;;5007767;28;19996;-68
2021/11/03 06:55:01;;;;;;;;;;;1.20;99.90;;;;;;5003973;28;19910;-68
2021/11/03 06:57:26;;;;;;;;;;;1.20;99.90;;;;;;5002639;28;19924;-67
2021/11/03 06:59:52;;;;;;;;;;;1.20;99.90;;;;;;5003418;28;19913;-67
2021/11/03 07:02:18;;;;;;;;;;;1.20;99.90;;;;;;5023030;28;19921;-67
2021/11/03 07:04:44;;;;;;;;;;;1.20;99.90;;;;;;5020796;28;20047;-67
2021/11/03 07:07:10;;;;;;;;;;;1.30;99.90;;;;;;5016198;28;20310;-67
2021/11/03 07:09:36;;;;;;;;;;;1.30;99.90;;;;;;5034316;28;19909;-66
2021/11/03 07:12:02;;;;;;;;;;;1.30;99.90;;;;;;5029904;28;19916;-67
2021/11/03 07:14:27;;;;;;;;;;;1.40;99.90;;;;;;5025676;28;21071;-67
2021/11/03 07:16:53;;;;;;;;;;;1.40;99.90;;;;;;5018702;28;19909;-67
2021/11/03 07:19:19;;;;;;;;;;;1.40;99.90;;;;;;5033071;28;19921;-67
2021/11/03 07:21:44;;;;;;;;;;;1.50;99.90;;;;;;5026152;28;19915;-67
2021/11/03 07:24:12;;;;;;;;;;;1.60;99.90;;;;;;5031284;28;20038;-67
2021/11/03 07:26:39;;;;;;;;;;;1.60;99.90;;;;;;5027537;28;19956;-67
2021/11/03 07:29:04;;;;;;;;;;;1.60;99.90;;;;;;5030889;28;20005;-67
2021/11/03 07:31:30;;;;;;;;;;;1.60;99.90;;;;;;5024911;28;19955;-67
2021/11/03 07:33:55;;;;;;;;;;;1.60;99.90;;;;;;5036175;28;20296;-66
2021/11/03 07:36:21;;;;;;;;;;;1.60;99.90;;;;;;5036385;28;19908;-67
2021/11/03 07:38:48;;;;;;;;;;;1.60;99.90;;;;;;5029241;28;19979;-67
2021/11/03 07:41:14;;;;;;;;;;;1.60;99.90;;;;;;5031235;28;19938;-67
2021/11/03 07:43:40;;;;;;;;;;;1.60;99.90;;;;;;5021133;28;20434;-67
2021/11/03 07:46:06;;;;;;;;;;;1.70;99.90;;;;;;5049140;28;20407;-67
2021/11/03 07:48:31;;;;;;;;;;;1.70;99.90;;;;;;5055371;28;19917;-67
2021/11/03 07:50:59;;;;;;;;;;;1.80;99.90;;;;;;5033496;28;19919;-67
2021/11/03 07:53:24;;;;;;;;;;;1.80;99.90;;;;;;5040791;28;19939;-67
2021/11/03 07:55:52;;;;;;;;;;;1.90;99.90;;;;;;5029207;28;19917;-68
2021/11/03 07:58:19;;;;;;;;;;;2.00;99.90;;;;;;5040772;28;19913;-67
2021/11/03 08:00:45;;;;;;;;;;;2.00;99.90;;;;;;5052629;28;20558;-67
2021/11/03 08:03:10;;;;;;;;;;;2.10;99.90;;;;;;5043348;28;19912;-67
2021/11/03 08:05:36;;;;;;;;;;;2.10;99.90;;;;;;5020907;28;19917;-67
2021/11/03 08:08:06;;;;;;;;;;;2.20;99.90;;;;;;5030906;28;19919;-67
2021/11/03 08:10:32;;;;;;;;;;;2.30;99.90;;;;;;5036695;28;19913;-67
2021/11/03 08:12:58;;;;;;;;;;;2.30;99.90;;;;;;5031714;28;19975;-67
2021/11/03 08:15:24;;;;;;;;;;;2.50;99.90;;;;;;5029738;28;20290;-67
2021/11/03 08:17:49;;;;;;;;;;;2.70;99.90;;;;;;5028582;28;19959;-67
2021/11/03 08:20:18;;;;;;;;;;;2.90;99.90;;;;;;5029543;28;19909;-67
2021/11/03 08:22:43;;;;;;;;;;;3.30;99.90;;;;;;5026117;28;19917;-67
2021/11/03 08:25:09;;;;;;;;;;;3.60;99.90;;;;;;5031760;28;19963;-67
2021/11/03 08:27:35;;;;;;;;;;;3.80;99.90;;;;;;5030061;28;19959;-68
2021/11/03 08:30:02;;;;;;;;;;;3.90;99.90;;;;;;5022428;28;20642;-66
2021/11/03 08:32:30;;;;;;;;;;;4.10;99.90;;;;;;5020013;28;19917;-67
2021/11/03 08:34:57;;;;;;;;;;;4.40;99.90;;;;;;5022412;28;20039;-67
2021/11/03 08:37:34;;;;;;;;;;;4.40;99.90;;;;;;5026722;28;19916;-67
2021/11/03 08:40:00;;;;;;;;;;;4.50;99.90;;;;;;5024688;28;19909;-67
2021/11/03 08:42:26;;;;;;;;;;;4.50;99.90;;;;;;5026731;28;19948;-67
2021/11/03 08:44:52;;;;;;;;;;;4.50;99.90;;;;;;5029360;28;19951;-67
2021/11/03 08:47:17;;;;;;;;;;;4.60;99.90;;;;;;5030020;28;19917;-67
2021/11/03 08:49:43;;;;;;;;;;;4.70;99.90;;;;;;5060449;28;20374;-67
2021/11/03 08:52:09;;;;;;;;;;;4.80;99.90;;;;;;5063003;28;19917;-67
2021/11/03 08:54:41;;;;;;;;;;;4.90;99.90;;;;;;5024117;28;19909;-67
2021/11/03 08:57:08;;;;;;;;;;;5.00;99.90;;;;;;5023427;28;19933;-67
2021/11/03 08:59:34;;;;;;;;;;;5.00;99.90;;;;;;5028581;28;19935;-67
2021/11/03 09:02:00;;;;;;;;;;;5.10;99.90;;;;;;5022551;28;19918;-67
2021/11/03 09:04:25;;;;;;;;;;;5.10;99.90;;;;;;5016052;28;19916;-67
2021/11/03 09:06:51;;;;;;;;;;;5.20;99.90;;;;;;5026288;28;19913;-67
2021/11/03 09:09:16;;;;;;;;;;;5.20;99.90;;;;;;5017145;28;19917;-67
2021/11/03 09:11:42;;;;;;;;;;;5.30;99.90;;;;;;5023348;28;19916;-67
2021/11/03 09:14:08;;;;;;;;;;;5.30;99.90;;;;;;5022206;28;19917;-67
2021/11/03 09:16:33;;;;;;;;;;;5.50;99.90;;;;;;5029362;28;20461;-67
2021/11/03 09:18:59;;;;;;;;;;;5.60;99.90;;;;;;5022539;28;19995;-67
2021/11/03 09:21:25;;;;;;;;;;;5.70;99.90;;;;;;5026164;28;19935;-67
2021/11/03 09:23:50;;;;;;;;;;;5.80;99.90;;;;;;5053473;28;20003;-68
2021/11/03 09:26:17;;;;;;;;;;;5.90;99.90;;;;;;5036950;28;19924;-67
2021/11/03 09:28:44;;;;;;;;;;;6.00;99.90;;;;;;5037745;28;20416;-67
2021/11/03 09:31:11;;;;;;;;;;;6.10;99.90;;;;;;5033935;28;19913;-68
2021/11/03 09:33:37;;;;;;;;;;;6.20;99.90;;;;;;5029251;28;19913;-68
2021/11/03 09:36:04;;;;;;;;;;;6.10;99.90;;;;;;5018939;28;19917;-68
2021/11/03 09:38:31;;;;;;;;;;;6.10;99.90;;;;;;5021920;28;20027;-69
2021/11/03 09:41:00;;;;;;;;;;;6.20;99.90;;;;;;5036971;28;19912;-67
2021/11/03 09:43:28;;;;;;;;;;;6.20;99.90;;;;;;5041506;28;22108;-68
2021/11/03 09:45:54;;;;;;;;;;;6.20;99.90;;;;;;5026107;28;20367;-67
2021/11/03 09:48:24;;;;;;;;;;;6.30;99.90;;;;;;5032482;28;19924;-67
2021/11/03 09:50:52;;;;;;;;;;;6.20;99.90;;;;;;5030302;28;19928;-67
2021/11/03 09:53:27;;;;;;;;;;;6.20;99.90;;;;;;5027313;28;19964;-67
2021/11/03 09:55:53;;;;;;;;;;;6.30;99.90;;;;;;5026219;28;19944;-67
2021/11/03 09:58:32;;;;;;;;;;;6.30;99.90;;;;;;5027720;28;20420;-67
2021/11/03 10:01:17;;;;;;;;;;;6.30;99.90;;;;;;5032355;28;19916;-67
2021/11/03 10:04:02;;;;;;;;;;;6.40;99.90;;;;;;5023887;28;19947;-67
2021/11/03 10:06:36;;;;;;;;;;;6.40;99.90;;;;;;5031618;28;20488;-66
2021/11/03 10:09:03;;;;;;;;;;;6.50;99.90;;;;;;5034496;28;20020;-67
2021/11/03 10:11:35;;;;;;;;;;;6.40;99.60;;;;;;5027367;28;19921;-67
2021/11/03 10:14:01;;;;;;;;;;;6.40;99.30;;;;;;5018838;28;20031;-67
2021/11/03 10:16:29;;;;;;;;;;;6.50;99.30;;;;;;5030950;28;19913;-67
2021/11/03 10:18:57;;;;;;;;;;;6.50;99.90;;;;;;5021183;28;19948;-67
2021/11/03 10:21:26;;;;;;;;;;;6.50;99.10;;;;;;5019991;28;19913;-67
2021/11/03 10:24:04;;;;;;;;;;;6.50;98.70;;;;;;5024424;28;19931;-67
2021/11/03 10:26:31;;;;;;;;;;;6.50;98.90;;;;;;5031027;28;19923;-68
2021/11/03 10:29:09;;;;;;;;;;;6.50;99.10;;;;;;5028053;28;20619;-68
2021/11/03 10:31:40;;;;;;;;;;;6.50;99.60;;;;;;5054418;28;19921;-67
2021/11/03 10:34:16;;;;;;;;;;;6.50;99.00;;;;;;5023554;28;19920;-67
2021/11/03 10:36:44;;;;;;;;;;;6.50;98.40;;;;;;5020335;28;19956;-67
2021/11/03 10:39:18;;;;;;;;;;;6.50;98.10;;;;;;5023752;28;19913;-67
2021/11/03 10:41:43;;;;;;;;;;;6.50;98.20;;;;;;5027559;28;20384;-67
2021/11/03 10:44:15;;;;;;;;;;;6.50;97.90;;;;;;5026029;28;19917;-67
2021/11/03 10:46:52;;;;;;;;;;;6.50;97.60;;;;;;5025056;28;20214;-67
2021/11/03 10:49:21;;;;;;;;;;;6.50;97.70;;;;;;5055467;28;19933;-67
2021/11/03 10:51:47;;;;;;;;;;;6.50;98.00;;;;;;5028050;28;19917;-67
2021/11/03 10:54:15;;;;;;;;;;;6.50;97.80;;;;;;5027610;28;19912;-67
2021/11/03 10:56:49;;;;;;;;;;;6.50;97.90;;;;;;5024891;28;19923;-67
2021/11/03 10:59:18;;;;;;;;;;;6.50;98.50;;;;;;5023888;28;19927;-67
2021/11/03 11:01:46;;;;;;;;;;;6.50;99.30;;;;;;5028534;28;19924;-67
2021/11/03 11:04:21;;;;;;;;;;;6.60;98.20;;;;;;5022719;28;20373;-67
2021/11/03 11:06:48;;;;;;;;;;;6.60;97.80;;;;;;5028900;28;20286;-67
2021/11/03 11:09:17;;;;;;;;;;;6.60;97.50;;;;;;5019014;28;19913;-67
2021/11/03 11:11:44;;;;;;;;;;;6.60;97.40;;;;;;5032301;28;19909;-67
2021/11/03 11:14:17;;;;;;;;;;;6.60;98.00;;;;;;5028132;28;19909;-68
2021/11/03 11:16:55;;;;;;;;;;;6.70;98.80;;;;;;5040326;28;20401;-67
2021/11/03 11:19:26;;;;;;;;;;;6.70;99.90;;;;;;5036436;28;20309;-67
2021/11/03 11:21:59;;;;;;;;;;;6.70;99.90;;;;;;5030757;28;19909;-67
2021/11/03 11:24:28;;;;;;;;;;;6.80;99.90;;;;;;5063290;28;19925;-67
2021/11/03 11:26:53;;;;;;;;;;;6.80;99.90;;;;;;5023173;28;19920;-66
2021/11/03 11:29:32;;;;;;;;;;;6.80;99.90;;;;;;5048774;28;20316;-67
2021/11/03 11:32:03;;;;;;;;;;;6.80;99.90;;;;;;5029001;28;20293;-67
2021/11/03 11:34:33;;;;;;;;;;;6.80;99.90;;;;;;5029079;28;19917;-67
2021/11/03 11:37:13;;;;;;;;;;;6.80;99.60;;;;;;5019524;28;20010;-67
2021/11/03 11:39:43;;;;;;;;;;;6.80;98.60;;;;;;5032129;28;19964;-66
2021/11/03 11:42:12;;;;;;;;;;;6.80;99.10;;;;;;5025671;28;20599;-67
2021/11/03 11:45:01;;;;;;;;;;;6.80;98.90;;;;;;5031019;28;19924;-67
2021/11/03 11:47:30;;;;;;;;;;;6.80;98.70;;;;;;5020862;28;20370;-68
2021/11/03 11:49:56;;;;;;;;;;;6.80;98.60;;;;;;5019536;28;20432;-67
2021/11/03 11:52:23;;;;;;;;;;;6.80;98.20;;;;;;5035220;28;19917;-67
2021/11/03 11:55:09;;;;;;;;;;;6.90;98.70;;;;;;5025137;28;20262;-67
2021/11/03 11:57:36;;;;;;;;;;;6.90;98.70;;;;;;5029090;28;19909;-67
2021/11/03 12:00:09;;;;;;;;;;;6.90;98.40;;;;;;5041425;28;19951;-67
2021/11/03 12:02:53;;;;;;;;;;;6.90;97.90;;;;;;5028875;28;19920;-68
2021/11/03 12:05:25;;;;;;;;;;;6.90;98.90;;;;;;5026911;28;20258;-67
2021/11/03 12:08:17;;;;;;;;;;;6.90;98.70;;;;;;5033624;28;20741;-67
2021/11/03 12:10:43;;;;;;;;;;;6.90;98.30;;;;;;5040749;28;20011;-67
2021/11/03 12:13:08;;;;;;;;;;;7.00;99.00;;;;;;5031224;28;20119;-67
2021/11/03 12:15:43;;;;;;;;;;;7.00;96.60;;;;;;5024283;28;19909;-67
2021/11/03 12:18:16;;;;;;;;;;;7.00;97.30;;;;;;5034770;28;19917;-67
2021/11/03 12:20:44;;;;;;;;;;;7.00;99.60;;;;;;5034089;28;20661;-67
2021/11/03 12:23:30;;;;;;;;;;;7.10;98.70;;;;;;5026798;28;20038;-67
2021/11/03 12:26:15;;;;;;;;;;;7.10;98.80;;;;;;5047715;28;20289;-67
2021/11/03 12:28:46;;;;;;;;;;;7.20;98.00;;;;;;5030147;28;19916;-67
2021/11/03 12:31:17;;;;;;;;;;;7.20;98.40;;;;;;5023670;28;19963;-67
2021/11/03 12:34:15;;;;;;;;;;;7.20;98.30;;;;;;5016780;28;19940;-67
2021/11/03 12:36:47;;;;;;;;;;;7.30;96.60;;;;;;5011903;28;19917;-67
2021/11/03 12:39:28;;;;;;;;;;;7.30;98.80;;;;;;5029492;28;20235;-68
2021/11/03 12:41:54;;;;;;;;;;;7.30;98.10;;;;;;5025942;28;19908;-67
2021/11/03 12:44:24;;;;;;;;;;;7.30;97.90;;;;;;5030465;28;19916;-67
2021/11/03 12:46:50;;;;;;;;;;;7.40;97.10;;;;;;5049172;28;19921;-67
2021/11/03 12:49:19;;;;;;;;;;;7.40;96.90;;;;;;5038227;28;19916;-67
2021/11/03 12:51:50;;;;;;;;;;;7.40;98.00;;;;;;5031433;28;19917;-67
2021/11/03 12:54:24;;;;;;;;;;;7.50;97.90;;;;;;5035695;28;20313;-67
2021/11/03 12:57:05;;;;;;;;;;;7.50;97.40;;;;;;5035098;28;20366;-67
2021/11/03 12:59:32;;;;;;;;;;;7.50;96.80;;;;;;5029306;28;19909;-67
2021/11/03 13:02:18;;;;;;;;;;;7.50;95.30;;;;;;5028404;28;19924;-67
2021/11/03 13:04:44;;;;;;;;;;;7.50;95.50;;;;;;5057770;28;19913;-68
2021/11/03 13:07:30;;;;;;;;;;;7.50;94.80;;;;;;5030418;28;19917;-68
2021/11/03 13:10:00;;;;;;;;;;;7.50;96.00;;;;;;5053371;28;19921;-68
2021/11/03 13:12:31;;;;;;;;;;;7.50;95.70;;;;;;5031175;28;20012;-68
2021/11/03 13:15:01;;;;;;;;;;;7.50;95.00;;;;;;5021321;28;19917;-67
2021/11/03 13:17:28;;;;;;;;;;;7.50;94.80;;;;;;5018758;28;19916;-68
2021/11/03 13:19:54;;;;;;;;;;;7.60;96.00;;;;;;5017246;28;19909;-68
2021/11/03 13:22:22;;;;;;;;;;;7.60;96.40;;;;;;5050343;28;19913;-67
2021/11/03 13:24:48;;;;;;;;;;;7.70;96.00;;;;;;5028016;28;19921;-68
2021/11/03 13:27:20;;;;;;;;;;;7.60;95.80;;;;;;5030301;28;20003;-68
2021/11/03 13:29:50;;;;;;;;;;;7.60;95.30;;;;;;5016383;28;22426;-68
2021/11/03 13:32:19;;;;;;;;;;;7.70;95.30;;;;;;5018463;28;19921;-68
2021/11/03 13:34:55;;;;;;;;;;;7.60;96.20;;;;;;5027306;28;19948;-68
2021/11/03 13:37:23;;;;;;;;;;;7.70;96.00;;;;;;5034377;28;19913;-68
2021/11/03 13:40:00;;;;;;;;;;;7.70;96.90;;;;;;5026162;28;19921;-68
2021/11/03 13:42:25;;;;;;;;;;;7.70;96.60;;;;;;5023123;28;19924;-68
2021/11/03 13:45:20;;;;;;;;;;;7.60;96.30;;;;;;5026474;28;19916;-68
2021/11/03 13:48:06;;;;;;;;;;;7.60;96.50;;;;;;5020213;28;19999;-67
2021/11/03 13:50:47;;;;;;;;;;;7.60;96.60;;;;;;5039055;28;19912;-68
2021/11/03 13:53:16;;;;;;;;;;;7.60;96.20;;;;;;5019646;28;20376;-68
2021/11/03 13:55:49;;;;;;;;;;;7.60;96.80;;;;;;5031599;28;20325;-68
2021/11/03 13:58:19;;;;;;;;;;;7.60;97.40;;;;;;5020782;28;20348;-68
2021/11/03 14:00:55;;;;;;;;;;;7.60;97.70;;;;;;5027713;28;20370;-68
2021/11/03 14:03:44;;;;;;;;;;;7.60;97.60;;;;;;5022424;28;19909;-68
2021/11/03 14:06:19;;;;;;;;;;;7.60;96.90;;;;;;5020648;28;19916;-68
2021/11/03 14:08:46;;;;;;;;;;;7.60;97.60;;;;;;5027891;28;19909;-68
2021/11/03 14:11:12;;;;;;;;;;;7.60;98.80;;;;;;5022282;28;19916;-68
2021/11/03 14:13:38;;;;;;;;;;;7.50;98.70;;;;;;5020469;28;20014;-68
2021/11/03 14:16:19;;;;;;;;;;;7.50;99.60;;;;;;5018167;28;19924;-69
2021/11/03 14:18:45;;;;;;;;;;;7.40;99.90;;;;;;5030379;28;20302;-68
2021/11/03 14:21:11;;;;;;;;;;;7.40;99.90;;;;;;5019805;28;19980;-68
2021/11/03 14:23:40;;;;;;;;;;;7.40;99.90;;;;;;5027718;28;19940;-69
2021/11/03 14:26:06;;;;;;;;;;;7.40;99.90;;;;;;5023209;28;19908;-68
2021/11/03 14:28:32;;;;;;;;;;;7.40;99.90;;;;;;5021727;28;19936;-68
2021/11/03 14:31:00;;;;;;;;;;;7.30;99.90;;;;;;5030922;28;19921;-68
2021/11/03 14:33:36;;;;;;;;;;;7.30;99.90;;;;;;5022868;28;19960;-68
2021/11/03 14:36:04;;;;;;;;;;;7.30;99.90;;;;;;5029139;28;19915;-68